sensor_id;sensor_type;location;lat;lon;timestamp;pressure;altitude;pressure_sealevel;temperature;humidity
17635;BME280;8936;49.010;12.120;2023-05-22T00:01:58;97574.78;;;22.90;93.38
17635;BME280;8936;49.010;12.120;2023-05-22T00:04:26;97567.66;;;22.85;93.89
17635;BME280;8936;49.010;12.120;2023-05-22T00:06:54;97563.72;;;22.83;93.88
17635;BME280;8936;49.010;12.120;2023-05-22T00:09:20;97558.25;;;22.83;93.82
17635;BME280;8936;49.010;12.120;2023-05-22T00:11:48;97555.97;;;22.85;93.63
17635;BME280;8936;49.010;12.120;2023-05-22T00:14:14;97556.41;;;22.71;93.41
17635;BME280;8936;49.010;12.120;2023-05-22T00:16:41;97554.47;;;22.72;93.96
17635;BME280;8936;49.010;12.120;2023-05-22T00:19:07;97560.97;;;22.67;94.03
17635;BME280;8936;49.010;12.120;2023-05-22T00:21:37;97556.75;;;22.70;93.54
17635;BME280;8936;49.010;12.120;2023-05-22T00:24:03;97552.44;;;22.69;93.40
17635;BME280;8936;49.010;12.120;2023-05-22T00:26:30;97547.69;;;22.66;92.95
17635;BME280;8936;49.010;12.120;2023-05-22T00:28:58;97554.59;;;22.63;92.98
17635;BME280;8936;49.010;12.120;2023-05-22T00:31:24;97546.81;;;22.62;93.04
17635;BME280;8936;49.010;12.120;2023-05-22T00:33:51;97545.22;;;22.60;92.91
17635;BME280;8936;49.010;12.120;2023-05-22T00:36:17;97549.44;;;22.58;92.55
17635;BME280;8936;49.010;12.120;2023-05-22T00:38:43;97556.47;;;22.59;92.24
17635;BME280;8936;49.010;12.120;2023-05-22T00:41:10;97547.50;;;22.58;91.81
17635;BME280;8936;49.010;12.120;2023-05-22T00:43:37;97552.94;;;22.58;92.01
17635;BME280;8936;49.010;12.120;2023-05-22T00:46:05;97560.31;;;22.58;91.63
17635;BME280;8936;49.010;12.120;2023-05-22T00:48:31;97564.88;;;22.54;91.93
17635;BME280;8936;49.010;12.120;2023-05-22T00:50:57;97552.75;;;22.51;91.94
17635;BME280;8936;49.010;12.120;2023-05-22T00:53:25;97555.81;;;22.50;91.71
17635;BME280;8936;49.010;12.120;2023-05-22T00:55:53;97546.53;;;22.51;91.80
17635;BME280;8936;49.010;12.120;2023-05-22T00:58:20;97544.22;;;22.53;91.47
17635;BME280;8936;49.010;12.120;2023-05-22T01:00:49;97545.72;;;22.50;91.48
17635;BME280;8936;49.010;12.120;2023-05-22T01:03:17;97542.56;;;22.48;91.45
17635;BME280;8936;49.010;12.120;2023-05-22T01:05:50;97549.13;;;22.47;91.53
17635;BME280;8936;49.010;12.120;2023-05-22T01:08:17;97560.81;;;22.48;91.64
17635;BME280;8936;49.010;12.120;2023-05-22T01:10:43;97555.53;;;22.39;91.72
17635;BME280;8936;49.010;12.120;2023-05-22T01:13:12;97553.09;;;22.34;91.71
17635;BME280;8936;49.010;12.120;2023-05-22T01:15:42;97550.81;;;22.36;91.74
17635;BME280;8936;49.010;12.120;2023-05-22T01:18:10;97546.06;;;22.33;91.67
17635;BME280;8936;49.010;12.120;2023-05-22T01:20:48;97544.94;;;22.34;91.73
17635;BME280;8936;49.010;12.120;2023-05-22T01:23:41;97551.50;;;22.33;91.74
17635;BME280;8936;49.010;12.120;2023-05-22T01:26:18;97557.63;;;22.30;91.88
17635;BME280;8936;49.010;12.120;2023-05-22T01:28:53;97550.81;;;22.09;91.74
17635;BME280;8936;49.010;12.120;2023-05-22T01:31:23;97553.13;;;21.94;94.31
17635;BME280;8936;49.010;12.120;2023-05-22T01:33:51;97564.19;;;22.01;94.32
17635;BME280;8936;49.010;12.120;2023-05-22T01:36:19;97560.91;;;22.08;93.90
17635;BME280;8936;49.010;12.120;2023-05-22T01:38:46;97561.81;;;22.12;93.22
17635;BME280;8936;49.010;12.120;2023-05-22T01:41:13;97562.59;;;22.13;93.39
17635;BME280;8936;49.010;12.120;2023-05-22T01:43:40;97567.25;;;22.12;93.03
17635;BME280;8936;49.010;12.120;2023-05-22T01:46:06;97565.66;;;22.11;93.43
17635;BME280;8936;49.010;12.120;2023-05-22T01:48:34;97559.31;;;22.07;93.67
17635;BME280;8936;49.010;12.120;2023-05-22T01:51:01;97563.19;;;22.06;93.87
17635;BME280;8936;49.010;12.120;2023-05-22T01:53:29;97557.84;;;22.10;93.20
17635;BME280;8936;49.010;12.120;2023-05-22T01:56:00;97556.69;;;22.11;93.06
17635;BME280;8936;49.010;12.120;2023-05-22T01:58:30;97553.06;;;22.06;93.21
17635;BME280;8936;49.010;12.120;2023-05-22T02:00:59;97556.94;;;22.05;93.18
17635;BME280;8936;49.010;12.120;2023-05-22T02:03:29;97553.75;;;22.03;93.21
17635;BME280;8936;49.010;12.120;2023-05-22T02:05:58;97563.88;;;22.03;93.38
17635;BME280;8936;49.010;12.120;2023-05-22T02:08:25;97560.69;;;22.01;93.45
17635;BME280;8936;49.010;12.120;2023-05-22T02:10:52;97550.97;;;22.00;93.50
17635;BME280;8936;49.010;12.120;2023-05-22T02:13:20;97554.03;;;21.98;93.50
17635;BME280;8936;49.010;12.120;2023-05-22T02:15:46;97558.22;;;21.96;93.64
17635;BME280;8936;49.010;12.120;2023-05-22T02:18:16;97559.03;;;21.96;93.78
17635;BME280;8936;49.010;12.120;2023-05-22T02:20:42;97556.63;;;21.95;93.83
17635;BME280;8936;49.010;12.120;2023-05-22T02:23:12;97552.69;;;21.92;93.94
17635;BME280;8936;49.010;12.120;2023-05-22T02:25:38;97550.31;;;21.91;93.88
17635;BME280;8936;49.010;12.120;2023-05-22T02:28:04;97555.06;;;21.94;93.56
17635;BME280;8936;49.010;12.120;2023-05-22T02:30:31;97552.56;;;21.89;93.72
17635;BME280;8936;49.010;12.120;2023-05-22T02:32:57;97547.78;;;21.86;93.75
17635;BME280;8936;49.010;12.120;2023-05-22T02:35:24;97548.59;;;21.86;93.80
17635;BME280;8936;49.010;12.120;2023-05-22T02:37:50;97546.22;;;21.85;93.49
17635;BME280;8936;49.010;12.120;2023-05-22T02:40:18;97543.75;;;21.80;93.88
17635;BME280;8936;49.010;12.120;2023-05-22T02:42:44;97539.22;;;21.84;93.62
17635;BME280;8936;49.010;12.120;2023-05-22T02:45:11;97549.19;;;21.80;93.57
17635;BME280;8936;49.010;12.120;2023-05-22T02:47:37;97539.78;;;21.77;93.92
17635;BME280;8936;49.010;12.120;2023-05-22T02:50:03;97544.09;;;21.78;93.81
17635;BME280;8936;49.010;12.120;2023-05-22T02:52:30;97535.84;;;21.75;93.88
17635;BME280;8936;49.010;12.120;2023-05-22T02:54:56;97540.38;;;21.71;93.81
17635;BME280;8936;49.010;12.120;2023-05-22T02:57:24;97540.13;;;21.76;93.75
17635;BME280;8936;49.010;12.120;2023-05-22T02:59:52;97537.66;;;21.71;93.87
17635;BME280;8936;49.010;12.120;2023-05-22T03:02:19;97539.81;;;21.65;93.99
17635;BME280;8936;49.010;12.120;2023-05-22T03:04:45;97540.16;;;21.64;94.05
17635;BME280;8936;49.010;12.120;2023-05-22T03:07:11;97548.78;;;21.66;93.72
17635;BME280;8936;49.010;12.120;2023-05-22T03:09:38;97548.78;;;21.66;93.77
17635;BME280;8936;49.010;12.120;2023-05-22T03:12:04;97552.63;;;21.65;93.82
17635;BME280;8936;49.010;12.120;2023-05-22T03:14:32;97547.88;;;21.62;93.74
17635;BME280;8936;49.010;12.120;2023-05-22T03:16:58;97548.44;;;21.55;94.39
17635;BME280;8936;49.010;12.120;2023-05-22T03:19:24;97549.56;;;21.54;94.16
17635;BME280;8936;49.010;12.120;2023-05-22T03:21:51;97550.03;;;21.56;94.08
17635;BME280;8936;49.010;12.120;2023-05-22T03:24:17;97550.72;;;21.53;94.06
17635;BME280;8936;49.010;12.120;2023-05-22T03:26:43;97554.44;;;21.48;94.34
17635;BME280;8936;49.010;12.120;2023-05-22T03:29:10;97560.78;;;21.52;94.12
17635;BME280;8936;49.010;12.120;2023-05-22T03:31:38;97556.47;;;21.51;94.08
17635;BME280;8936;49.010;12.120;2023-05-22T03:34:04;97560.69;;;21.49;94.18
17635;BME280;8936;49.010;12.120;2023-05-22T03:36:31;97554.91;;;21.50;94.25
17635;BME280;8936;49.010;12.120;2023-05-22T03:38:59;97556.38;;;21.48;94.19
17635;BME280;8936;49.010;12.120;2023-05-22T03:41:25;97550.38;;;21.42;94.75
17635;BME280;8936;49.010;12.120;2023-05-22T03:43:51;97556.72;;;21.46;94.74
17635;BME280;8936;49.010;12.120;2023-05-22T03:46:18;97559.78;;;21.45;95.04
17635;BME280;8936;49.010;12.120;2023-05-22T03:48:46;97563.75;;;21.47;94.68
17635;BME280;8936;49.010;12.120;2023-05-22T03:51:12;97559.69;;;21.41;95.41
17635;BME280;8936;49.010;12.120;2023-05-22T03:53:38;97558.31;;;21.47;94.90
17635;BME280;8936;49.010;12.120;2023-05-22T03:56:05;97558.31;;;21.47;95.00
17635;BME280;8936;49.010;12.120;2023-05-22T03:58:31;97567.38;;;21.39;95.67
17635;BME280;8936;49.010;12.120;2023-05-22T04:00:58;97565.13;;;21.41;95.47
17635;BME280;8936;49.010;12.120;2023-05-22T04:03:25;97565.34;;;21.36;95.88
17635;BME280;8936;49.010;12.120;2023-05-22T04:05:52;97564.53;;;21.36;95.84
17635;BME280;8936;49.010;12.120;2023-05-22T04:08:19;97558.66;;;21.34;95.84
17635;BME280;8936;49.010;12.120;2023-05-22T04:10:45;97559.56;;;21.38;95.59
17635;BME280;8936;49.010;12.120;2023-05-22T04:13:12;97553.78;;;21.39;95.44
17635;BME280;8936;49.010;12.120;2023-05-22T04:15:39;97562.28;;;21.38;95.30
17635;BME280;8936;49.010;12.120;2023-05-22T04:18:08;97559.91;;;21.36;95.55
17635;BME280;8936;49.010;12.120;2023-05-22T04:20:35;97560.16;;;21.31;95.74
17635;BME280;8936;49.010;12.120;2023-05-22T04:23:03;97552.44;;;21.33;95.37
17635;BME280;8936;49.010;12.120;2023-05-22T04:25:31;97560.16;;;21.31;95.53
17635;BME280;8936;49.010;12.120;2023-05-22T04:27:58;97555.59;;;21.35;95.42
17635;BME280;8936;49.010;12.120;2023-05-22T04:30:27;97560.16;;;21.31;95.56
17635;BME280;8936;49.010;12.120;2023-05-22T04:32:53;97561.03;;;21.35;95.23
17635;BME280;8936;49.010;12.120;2023-05-22T04:35:20;97569.41;;;21.30;95.68
17635;BME280;8936;49.010;12.120;2023-05-22T04:37:47;97563.97;;;21.30;95.59
17635;BME280;8936;49.010;12.120;2023-05-22T04:40:15;97560.25;;;21.35;95.25
17635;BME280;8936;49.010;12.120;2023-05-22T04:42:41;97560.25;;;21.35;95.34
17635;BME280;8936;49.010;12.120;2023-05-22T04:45:08;97560.16;;;21.31;95.58
17635;BME280;8936;49.010;12.120;2023-05-22T04:47:35;97568.72;;;21.33;95.42
17635;BME280;8936;49.010;12.120;2023-05-22T04:50:02;97562.84;;;21.31;95.36
17635;BME280;8936;49.010;12.120;2023-05-22T04:52:28;97561.63;;;21.29;95.83
17635;BME280;8936;49.010;12.120;2023-05-22T04:54:55;97561.97;;;21.15;96.60
17635;BME280;8936;49.010;12.120;2023-05-22T04:57:22;97563.84;;;21.02;97.99
17635;BME280;8936;49.010;12.120;2023-05-22T04:59:51;97568.44;;;20.66;100.00
17635;BME280;8936;49.010;12.120;2023-05-22T05:02:17;97567.09;;;20.84;100.00
17635;BME280;8936;49.010;12.120;2023-05-22T05:04:44;97568.69;;;20.85;100.00
17635;BME280;8936;49.010;12.120;2023-05-22T05:07:11;97570.25;;;20.74;100.00
17635;BME280;8936;49.010;12.120;2023-05-22T05:09:37;97568.13;;;20.67;100.00
17635;BME280;8936;49.010;12.120;2023-05-22T05:12:04;97569.34;;;20.70;100.00
17635;BME280;8936;49.010;12.120;2023-05-22T05:14:31;97565.72;;;20.66;100.00
17635;BME280;8936;49.010;12.120;2023-05-22T05:16:58;97564.94;;;20.65;100.00
17635;BME280;8936;49.010;12.120;2023-05-22T05:19:24;97570.59;;;20.72;100.00
17635;BME280;8936;49.010;12.120;2023-05-22T05:21:50;97569.75;;;20.48;100.00
17635;BME280;8936;49.010;12.120;2023-05-22T05:24:17;97567.19;;;20.30;100.00
17635;BME280;8936;49.010;12.120;2023-05-22T05:26:43;97575.75;;;20.20;100.00
17635;BME280;8936;49.010;12.120;2023-05-22T05:29:10;97560.66;;;20.31;100.00
17635;BME280;8936;49.010;12.120;2023-05-22T05:31:38;97561.28;;;20.49;100.00
17635;BME280;8936;49.010;12.120;2023-05-22T05:34:04;97564.22;;;20.56;100.00
17635;BME280;8936;49.010;12.120;2023-05-22T05:36:30;97563.03;;;20.78;100.00
17635;BME280;8936;49.010;12.120;2023-05-22T05:38:57;97558.31;;;21.11;99.73
17635;BME280;8936;49.010;12.120;2023-05-22T05:41:23;97565.88;;;21.42;97.53
17635;BME280;8936;49.010;12.120;2023-05-22T05:43:50;97564.84;;;21.71;97.37
17635;BME280;8936;49.010;12.120;2023-05-22T05:46:17;97565.25;;;21.73;96.40
17635;BME280;8936;49.010;12.120;2023-05-22T05:48:45;97564.09;;;21.86;95.72
17635;BME280;8936;49.010;12.120;2023-05-22T05:51:11;97559.81;;;21.97;94.75
17635;BME280;8936;49.010;12.120;2023-05-22T05:53:37;97566.78;;;22.10;93.88
17635;BME280;8936;49.010;12.120;2023-05-22T05:56:05;97567.19;;;22.24;94.50
17635;BME280;8936;49.010;12.120;2023-05-22T05:58:31;97562.06;;;22.23;93.87
17635;BME280;8936;49.010;12.120;2023-05-22T06:00:58;97570.28;;;22.38;93.34
17635;BME280;8936;49.010;12.120;2023-05-22T06:03:24;97561.25;;;22.50;93.15
17635;BME280;8936;49.010;12.120;2023-05-22T06:05:52;97561.66;;;22.64;92.66
17635;BME280;8936;49.010;12.120;2023-05-22T06:08:19;97569.06;;;22.79;92.12
17635;BME280;8936;49.010;12.120;2023-05-22T06:10:46;97574.09;;;22.93;91.65
17635;BME280;8936;49.010;12.120;2023-05-22T06:13:12;97578.97;;;23.03;91.10
17635;BME280;8936;49.010;12.120;2023-05-22T06:15:38;97572.81;;;22.75;88.52
17635;BME280;8936;49.010;12.120;2023-05-22T06:18:05;97571.44;;;22.81;92.28
17635;BME280;8936;49.010;12.120;2023-05-22T06:20:31;97572.59;;;22.95;91.83
17635;BME280;8936;49.010;12.120;2023-05-22T06:22:59;97576.25;;;23.19;90.28
17635;BME280;8936;49.010;12.120;2023-05-22T06:25:25;97571.59;;;23.35;89.24
17635;BME280;8936;49.010;12.120;2023-05-22T06:27:54;97572.22;;;23.44;86.24
17635;BME280;8936;49.010;12.120;2023-05-22T06:30:20;97565.00;;;23.36;81.30
17635;BME280;8936;49.010;12.120;2023-05-22T06:32:46;97570.28;;;23.13;86.81
17635;BME280;8936;49.010;12.120;2023-05-22T06:35:13;97567.91;;;23.27;86.30
17635;BME280;8936;49.010;12.120;2023-05-22T06:37:39;97569.88;;;23.11;85.13
17635;BME280;8936;49.010;12.120;2023-05-22T06:40:08;97564.41;;;23.27;88.55
17635;BME280;8936;49.010;12.120;2023-05-22T06:42:35;97555.44;;;23.42;85.76
17635;BME280;8936;49.010;12.120;2023-05-22T06:45:01;97550.66;;;23.54;83.88
17635;BME280;8936;49.010;12.120;2023-05-22T06:47:28;97556.97;;;23.58;84.41
17635;BME280;8936;49.010;12.120;2023-05-22T06:49:55;97555.59;;;23.33;84.88
17635;BME280;8936;49.010;12.120;2023-05-22T06:52:21;97560.19;;;23.45;81.87
17635;BME280;8936;49.010;12.120;2023-05-22T06:54:48;97557.78;;;23.28;83.10
17635;BME280;8936;49.010;12.120;2023-05-22T06:57:15;97556.34;;;23.15;83.78
17635;BME280;8936;49.010;12.120;2023-05-22T06:59:42;97562.72;;;23.06;87.05
17635;BME280;8936;49.010;12.120;2023-05-22T07:02:08;97565.47;;;22.91;89.29
17635;BME280;8936;49.010;12.120;2023-05-22T07:04:34;97559.16;;;22.87;88.20
17635;BME280;8936;49.010;12.120;2023-05-22T07:07:01;97561.88;;;22.71;90.41
17635;BME280;8936;49.010;12.120;2023-05-22T07:09:27;97563.94;;;22.62;90.74
17635;BME280;8936;49.010;12.120;2023-05-22T07:11:54;97568.34;;;22.67;92.01
17635;BME280;8936;49.010;12.120;2023-05-22T07:14:21;97567.38;;;22.75;91.71
17635;BME280;8936;49.010;12.120;2023-05-22T07:16:48;97564.22;;;22.88;92.74
17635;BME280;8936;49.010;12.120;2023-05-22T07:19:14;97565.97;;;23.12;92.10
17635;BME280;8936;49.010;12.120;2023-05-22T07:21:40;97566.84;;;23.32;89.55
17635;BME280;8936;49.010;12.120;2023-05-22T07:24:07;97561.69;;;23.11;89.62
17635;BME280;8936;49.010;12.120;2023-05-22T07:26:33;97571.00;;;22.94;90.35
17635;BME280;8936;49.010;12.120;2023-05-22T07:29:00;97566.69;;;22.78;89.70
17635;BME280;8936;49.010;12.120;2023-05-22T07:31:28;97572.25;;;22.53;91.92
17635;BME280;8936;49.010;12.120;2023-05-22T07:33:55;97565.63;;;22.39;92.98
17635;BME280;8936;49.010;12.120;2023-05-22T07:36:21;97562.66;;;22.44;91.85
17635;BME280;8936;49.010;12.120;2023-05-22T07:38:47;97563.66;;;22.51;92.27
17635;BME280;8936;49.010;12.120;2023-05-22T07:41:14;97570.09;;;22.75;92.32
17635;BME280;8936;49.010;12.120;2023-05-22T07:43:40;97569.13;;;22.67;91.59
17635;BME280;8936;49.010;12.120;2023-05-22T07:46:06;97555.63;;;22.71;91.50
17635;BME280;8936;49.010;12.120;2023-05-22T07:48:34;97566.00;;;22.81;90.06
17635;BME280;8936;49.010;12.120;2023-05-22T07:51:01;97564.41;;;22.80;89.21
17635;BME280;8936;49.010;12.120;2023-05-22T07:53:28;97568.81;;;22.56;91.06
17635;BME280;8936;49.010;12.120;2023-05-22T07:55:54;97561.22;;;22.62;90.95
17635;BME280;8936;49.010;12.120;2023-05-22T07:58:21;97565.22;;;22.52;91.69
17635;BME280;8936;49.010;12.120;2023-05-22T08:00:48;97554.97;;;22.62;91.71
17635;BME280;8936;49.010;12.120;2023-05-22T08:03:14;97562.63;;;22.72;90.68
17635;BME280;8936;49.010;12.120;2023-05-22T08:05:42;97557.56;;;22.86;91.38
17635;BME280;8936;49.010;12.120;2023-05-22T08:08:08;97564.06;;;22.97;91.76
17635;BME280;8936;49.010;12.120;2023-05-22T08:10:36;97559.22;;;23.06;88.66
17635;BME280;8936;49.010;12.120;2023-05-22T08:13:02;97557.66;;;22.89;86.61
17635;BME280;8936;49.010;12.120;2023-05-22T08:15:30;97555.63;;;23.02;85.03
17635;BME280;8936;49.010;12.120;2023-05-22T08:17:56;97554.31;;;23.11;84.60
17635;BME280;8936;49.010;12.120;2023-05-22T08:20:23;97554.13;;;23.04;83.55
17635;BME280;8936;49.010;12.120;2023-05-22T08:22:50;97550.91;;;23.34;86.16
17635;BME280;8936;49.010;12.120;2023-05-22T08:25:17;97558.47;;;23.56;80.80
17635;BME280;8936;49.010;12.120;2023-05-22T08:27:43;97554.97;;;23.24;79.66
17635;BME280;8936;49.010;12.120;2023-05-22T08:30:09;97566.44;;;23.14;80.28
17635;BME280;8936;49.010;12.120;2023-05-22T08:32:36;97559.19;;;23.22;82.35
17635;BME280;8936;49.010;12.120;2023-05-22T08:35:02;97561.09;;;23.02;84.71
17635;BME280;8936;49.010;12.120;2023-05-22T08:37:31;97553.66;;;23.18;85.31
17635;BME280;8936;49.010;12.120;2023-05-22T08:39:58;97565.47;;;23.06;85.68
17635;BME280;8936;49.010;12.120;2023-05-22T08:42:25;97558.41;;;23.21;85.37
17635;BME280;8936;49.010;12.120;2023-05-22T08:44:51;97558.84;;;23.39;84.94
17635;BME280;8936;49.010;12.120;2023-05-22T08:47:19;97552.25;;;23.24;81.16
17635;BME280;8936;49.010;12.120;2023-05-22T08:49:47;97549.78;;;23.50;83.55
17635;BME280;8936;49.010;12.120;2023-05-22T08:52:17;97549.28;;;23.80;84.37
17635;BME280;8936;49.010;12.120;2023-05-22T08:54:48;97551.56;;;23.97;83.53
17635;BME280;8936;49.010;12.120;2023-05-22T08:57:19;97535.50;;;24.11;83.09
17635;BME280;8936;49.010;12.120;2023-05-22T08:59:45;97545.97;;;24.09;84.17
17635;BME280;8936;49.010;12.120;2023-05-22T09:02:12;97547.53;;;23.91;84.61
17635;BME280;8936;49.010;12.120;2023-05-22T09:04:39;97552.63;;;23.92;83.85
17635;BME280;8936;49.010;12.120;2023-05-22T09:07:06;97550.44;;;24.17;84.41
17635;BME280;8936;49.010;12.120;2023-05-22T09:09:35;97541.97;;;24.22;83.91
17635;BME280;8936;49.010;12.120;2023-05-22T09:12:01;97542.53;;;24.12;83.64
17635;BME280;8936;49.010;12.120;2023-05-22T09:14:30;97555.38;;;24.31;81.19
17635;BME280;8936;49.010;12.120;2023-05-22T09:17:03;97531.84;;;24.23;83.13
17635;BME280;8936;49.010;12.120;2023-05-22T09:19:30;97542.25;;;23.98;82.77
17635;BME280;8936;49.010;12.120;2023-05-22T09:22:00;97540.41;;;23.86;83.91
17635;BME280;8936;49.010;12.120;2023-05-22T09:24:27;97542.38;;;24.43;83.28
17635;BME280;8936;49.010;12.120;2023-05-22T09:26:53;97536.66;;;24.29;80.07
17635;BME280;8936;49.010;12.120;2023-05-22T09:29:19;97544.56;;;24.15;82.39
17635;BME280;8936;49.010;12.120;2023-05-22T09:31:47;97540.91;;;24.49;81.09
17635;BME280;8936;49.010;12.120;2023-05-22T09:34:14;97551.69;;;24.42;79.38
17635;BME280;8936;49.010;12.120;2023-05-22T09:36:41;97546.75;;;24.48;74.35
17635;BME280;8936;49.010;12.120;2023-05-22T09:39:08;97546.03;;;24.51;72.39
17635;BME280;8936;49.010;12.120;2023-05-22T09:41:35;97542.81;;;24.68;74.83
17635;BME280;8936;49.010;12.120;2023-05-22T09:44:05;97538.94;;;24.69;72.32
17635;BME280;8936;49.010;12.120;2023-05-22T09:46:37;97542.16;;;24.75;68.55
17635;BME280;8936;49.010;12.120;2023-05-22T09:49:05;97545.66;;;24.52;66.33
17635;BME280;8936;49.010;12.120;2023-05-22T09:51:31;97542.34;;;24.62;64.25
17635;BME280;8936;49.010;12.120;2023-05-22T09:54:00;97542.69;;;24.61;63.73
17635;BME280;8936;49.010;12.120;2023-05-22T09:56:27;97547.22;;;24.76;60.52
17635;BME280;8936;49.010;12.120;2023-05-22T09:58:55;97536.34;;;24.99;62.59
17635;BME280;8936;49.010;12.120;2023-05-22T10:01:23;97546.47;;;25.21;60.32
17635;BME280;8936;49.010;12.120;2023-05-22T10:03:50;97534.63;;;25.13;59.80
17635;BME280;8936;49.010;12.120;2023-05-22T10:06:21;97531.00;;;25.06;59.86
17635;BME280;8936;49.010;12.120;2023-05-22T10:08:49;97532.34;;;24.93;58.33
17635;BME280;8936;49.010;12.120;2023-05-22T10:11:15;97532.34;;;24.93;57.22
17635;BME280;8936;49.010;12.120;2023-05-22T10:13:42;97541.47;;;25.04;59.10
17635;BME280;8936;49.010;12.120;2023-05-22T10:16:12;97533.53;;;25.18;57.74
17635;BME280;8936;49.010;12.120;2023-05-22T10:18:38;97534.69;;;25.17;56.50
17635;BME280;8936;49.010;12.120;2023-05-22T10:21:06;97516.50;;;25.28;58.97
17635;BME280;8936;49.010;12.120;2023-05-22T10:23:33;97518.44;;;25.28;56.24
17635;BME280;8936;49.010;12.120;2023-05-22T10:26:00;97525.84;;;25.27;57.95
17635;BME280;8936;49.010;12.120;2023-05-22T10:28:32;97518.13;;;25.33;59.05
17635;BME280;8936;49.010;12.120;2023-05-22T10:31:02;97512.53;;;25.25;56.02
17635;BME280;8936;49.010;12.120;2023-05-22T10:33:35;97523.06;;;25.23;55.75
17635;BME280;8936;49.010;12.120;2023-05-22T10:36:04;97517.25;;;25.25;55.09
17635;BME280;8936;49.010;12.120;2023-05-22T10:38:39;97511.03;;;25.28;57.65
17635;BME280;8936;49.010;12.120;2023-05-22T10:41:09;97508.03;;;25.37;57.76
17635;BME280;8936;49.010;12.120;2023-05-22T10:43:37;97505.16;;;25.52;57.96
17635;BME280;8936;49.010;12.120;2023-05-22T10:46:04;97507.47;;;25.50;54.54
17635;BME280;8936;49.010;12.120;2023-05-22T10:48:35;97503.16;;;25.49;54.50
17635;BME280;8936;49.010;12.120;2023-05-22T10:51:02;97491.09;;;25.54;54.92
17635;BME280;8936;49.010;12.120;2023-05-22T10:53:30;97496.72;;;25.64;54.87
17635;BME280;8936;49.010;12.120;2023-05-22T10:55:58;97501.88;;;25.69;54.52
17635;BME280;8936;49.010;12.120;2023-05-22T10:58:27;97497.13;;;25.66;55.43
17635;BME280;8936;49.010;12.120;2023-05-22T11:01:07;97495.56;;;25.65;51.81
17635;BME280;8936;49.010;12.120;2023-05-22T11:06:28;97490.28;;;25.80;49.01
17635;BME280;8936;49.010;12.120;2023-05-22T11:08:55;97495.34;;;25.77;48.97
17635;BME280;8936;49.010;12.120;2023-05-22T11:11:24;97489.88;;;25.81;46.62
17635;BME280;8936;49.010;12.120;2023-05-22T11:13:51;97485.78;;;25.98;46.86
17635;BME280;8936;49.010;12.120;2023-05-22T11:16:18;97486.72;;;26.09;46.89
17635;BME280;8936;49.010;12.120;2023-05-22T11:18:44;97492.50;;;26.04;48.60
17635;BME280;8936;49.010;12.120;2023-05-22T11:21:11;97494.19;;;26.12;46.17
17635;BME280;8936;49.010;12.120;2023-05-22T11:23:38;97485.78;;;25.98;47.02
17635;BME280;8936;49.010;12.120;2023-05-22T11:26:20;97482.31;;;26.01;46.81
17635;BME280;8936;49.010;12.120;2023-05-22T11:28:50;97484.69;;;26.06;46.97
17635;BME280;8936;49.010;12.120;2023-05-22T11:31:18;97480.06;;;26.10;47.12
17635;BME280;8936;49.010;12.120;2023-05-22T11:33:45;97488.28;;;26.10;47.87
17635;BME280;8936;49.010;12.120;2023-05-22T11:36:11;97484.44;;;26.14;47.67
17635;BME280;8936;49.010;12.120;2023-05-22T11:38:38;97483.00;;;25.94;47.94
17635;BME280;8936;49.010;12.120;2023-05-22T11:41:07;97475.34;;;26.07;47.88
17635;BME280;8936;49.010;12.120;2023-05-22T11:43:33;97474.75;;;26.20;45.57
17635;BME280;8936;49.010;12.120;2023-05-22T11:46:05;97470.50;;;26.26;46.51
17635;BME280;8936;49.010;12.120;2023-05-22T11:48:31;97472.41;;;26.22;47.18
17635;BME280;8936;49.010;12.120;2023-05-22T11:50:58;97463.84;;;26.27;46.91
17635;BME280;8936;49.010;12.120;2023-05-22T11:53:24;97466.22;;;26.29;48.10
17635;BME280;8936;49.010;12.120;2023-05-22T11:55:51;97462.78;;;26.36;49.30
17635;BME280;8936;49.010;12.120;2023-05-22T11:58:19;97456.06;;;26.29;49.61
17635;BME280;8936;49.010;12.120;2023-05-22T12:00:46;97448.38;;;26.42;51.98
17635;BME280;8936;49.010;12.120;2023-05-22T12:03:14;97451.16;;;26.49;49.19
17635;BME280;8936;49.010;12.120;2023-05-22T12:05:43;97460.88;;;26.43;48.80
17635;BME280;8936;49.010;12.120;2023-05-22T12:08:09;97453.41;;;26.40;49.05
17635;BME280;8936;49.010;12.120;2023-05-22T12:10:36;97464.44;;;26.47;48.61
17635;BME280;8936;49.010;12.120;2023-05-22T12:13:02;97457.34;;;26.39;47.65
17635;BME280;8936;49.010;12.120;2023-05-22T12:15:29;97454.63;;;26.43;47.93
17635;BME280;8936;49.010;12.120;2023-05-22T12:17:55;97460.19;;;26.53;47.61
17635;BME280;8936;49.010;12.120;2023-05-22T12:20:23;97460.25;;;26.60;47.01
17635;BME280;8936;49.010;12.120;2023-05-22T12:22:54;97458.69;;;26.59;47.23
17635;BME280;8936;49.010;12.120;2023-05-22T12:25:20;97446.06;;;26.48;45.91
17635;BME280;8936;49.010;12.120;2023-05-22T12:27:49;97446.16;;;26.62;47.15
17635;BME280;8936;49.010;12.120;2023-05-22T12:30:16;97448.91;;;26.58;47.88
17635;BME280;8936;49.010;12.120;2023-05-22T12:32:46;97445.78;;;26.60;48.04
17635;BME280;8936;49.010;12.120;2023-05-22T12:35:13;97437.56;;;26.60;46.28
17635;BME280;8936;49.010;12.120;2023-05-22T12:37:46;97436.13;;;26.76;46.53
17635;BME280;8936;49.010;12.120;2023-05-22T12:40:12;97435.06;;;26.88;45.99
17635;BME280;8936;49.010;12.120;2023-05-22T12:42:39;97443.97;;;26.78;45.79
17635;BME280;8936;49.010;12.120;2023-05-22T12:45:05;97431.50;;;26.84;45.92
17635;BME280;8936;49.010;12.120;2023-05-22T12:47:32;97438.63;;;26.96;46.94
17635;BME280;8936;49.010;12.120;2023-05-22T12:49:58;97428.88;;;26.98;48.53
17635;BME280;8936;49.010;12.120;2023-05-22T12:52:25;97434.72;;;26.97;49.38
17635;BME280;8936;49.010;12.120;2023-05-22T12:54:52;97427.78;;;27.10;49.95
17635;BME280;8936;49.010;12.120;2023-05-22T12:57:19;97429.34;;;27.11;46.36
17635;BME280;8936;49.010;12.120;2023-05-22T12:59:45;97433.13;;;26.89;45.29
17635;BME280;8936;49.010;12.120;2023-05-22T13:02:11;97434.03;;;27.07;44.37
17635;BME280;8936;49.010;12.120;2023-05-22T13:04:38;97429.66;;;26.99;43.60